Time;durP1;ratioP1;P1;durP2;ratioP2;P2;SDS_P1;SDS_P2;PMS_P1;PMS_P2;Temp;Humidity;BMP_temperature;BMP_pressure;BME280_temperature;BME280_humidity;BME280_pressure;Samples;Min_cycle;Max_cycle;Signal;HPM_P1;HPM_P2
2023/12/08 00:01:19;;;;;;;18.77;14.90;;;;;;;3.56;76.93;99724.66;10334893;28;20042;-63
2023/12/08 00:06:21;;;;;;;17.48;14.50;;;;;;;3.57;76.63;99713.16;10344540;28;20701;-64
2023/12/08 00:11:22;;;;;;;17.67;13.23;;;;;;;3.40;76.83;99692.28;10335689;28;20060;-64
2023/12/08 00:16:25;;;;;;;17.10;13.98;;;;;;;3.51;76.93;99705.63;10343212;28;20077;-63
2023/12/08 00:21:26;;;;;;;15.77;14.07;;;;;;;3.53;77.00;99709.88;10333573;28;20137;-63
2023/12/08 00:26:29;;;;;;;17.35;14.10;;;;;;;3.44;77.58;99689.38;10337265;28;20042;-62
2023/12/08 00:31:31;;;;;;;17.88;14.90;;;;;;;3.50;77.97;99689.00;10336866;28;20131;-63
2023/12/08 00:36:32;;;;;;;19.10;14.95;;;;;;;3.49;76.50;99692.56;10341217;28;20050;-63
2023/12/08 00:41:34;;;;;;;17.13;14.15;;;;;;;3.45;76.28;99690.22;10320338;28;20053;-63
2023/12/08 00:46:36;;;;;;;16.40;14.05;;;;;;;3.41;77.11;99665.00;10326052;28;20138;-63
2023/12/08 00:51:39;;;;;;;17.25;13.68;;;;;;;3.46;76.66;99648.03;10326230;28;20129;-63
2023/12/08 00:56:40;;;;;;;16.02;14.00;;;;;;;3.43;76.28;99647.38;10341051;28;20060;-63
2023/12/08 01:01:44;;;;;;;16.30;14.15;;;;;;;3.44;77.35;99636.75;10332517;28;20181;-63
2023/12/08 01:06:45;;;;;;;16.98;14.80;;;;;;;3.36;76.78;99670.56;10338644;28;20050;-61
2023/12/08 01:11:47;;;;;;;18.67;14.80;;;;;;;3.37;76.83;99672.25;10321145;28;20041;-63
2023/12/08 01:16:49;;;;;;;17.63;14.55;;;;;;;3.34;77.10;99661.91;10342170;28;20080;-64
2023/12/08 01:21:51;;;;;;;16.50;14.73;;;;;;;3.35;76.81;99668.88;10341761;28;20076;-63
2023/12/08 01:26:52;;;;;;;17.25;13.93;;;;;;;3.44;77.87;99689.38;10329538;28;20053;-64
2023/12/08 01:31:53;;;;;;;17.90;15.73;;;;;;;3.41;76.59;99644.84;10336502;28;20072;-62
2023/12/08 01:36:55;;;;;;;19.27;15.18;;;;;;;3.21;76.80;99597.84;10338463;28;20101;-63
2023/12/08 01:41:57;;;;;;;17.23;14.52;;;;;;;3.35;76.80;99616.28;10337127;28;20057;-63
2023/12/08 01:46:58;;;;;;;18.15;14.38;;;;;;;3.32;76.15;99624.34;10353365;28;20100;-63
2023/12/08 01:52:04;;;;;;;16.95;14.68;;;;;;;3.28;76.11;99626.28;10332815;28;20054;-63
2023/12/08 01:57:06;;;;;;;19.45;16.48;;;;;;;3.24;75.78;99608.16;10353322;28;20068;-62
2023/12/08 02:02:08;;;;;;;17.63;14.55;;;;;;;3.24;75.31;99610.78;10340085;28;20145;-63
2023/12/08 02:07:10;;;;;;;16.67;14.25;;;;;;;3.30;75.04;99613.06;10343353;28;20123;-63
2023/12/08 02:12:11;;;;;;;17.83;14.30;;;;;;;3.28;74.87;99588.63;10339551;28;20060;-62
2023/12/08 02:17:26;;;;;;;15.88;13.18;;;;;;;3.36;74.69;99583.75;10334801;28;20060;-64
2023/12/08 02:22:28;;;;;;;16.45;14.63;;;;;;;3.38;74.88;99579.25;10339869;28;20705;-63
2023/12/08 02:27:29;;;;;;;17.33;14.63;;;;;;;3.36;74.57;99586.38;10338492;28;20054;-63
2023/12/08 02:32:49;;;;;;;16.40;13.68;;;;;;;3.41;75.25;99592.22;10343283;28;20128;-63
2023/12/08 02:37:55;;;;;;;17.85;14.43;;;;;;;3.48;75.05;99598.78;10326957;28;20766;-63
2023/12/08 02:42:57;;;;;;;;;;;;;;;3.47;74.26;99583.09;10351103;28;20064;-63
2023/12/08 02:47:59;;;;;;;16.75;14.57;;;;;;;3.40;74.21;99571.25;10338012;28;19927;-63
2023/12/08 02:53:00;;;;;;;18.77;15.27;;;;;;;3.33;74.04;99549.72;10344923;28;20187;-64
2023/12/08 02:58:02;;;;;;;16.10;14.43;;;;;;;3.31;73.96;99554.25;10341170;28;20538;-63
2023/12/08 03:03:03;;;;;;;17.67;14.18;;;;;;;3.29;74.23;99558.78;10347969;28;20061;-63
2023/12/08 03:08:05;;;;;;;20.38;15.02;;;;;;;3.29;74.30;99553.50;10336002;28;20079;-64
2023/12/08 03:13:07;;;;;;;17.58;14.43;;;;;;;3.32;74.18;99554.16;10334562;28;20054;-63
2023/12/08 03:18:10;;;;;;;16.23;13.70;;;;;;;3.35;74.52;99553.97;10332381;28;20621;-63
2023/12/08 03:23:12;;;;;;;18.35;15.35;;;;;;;3.39;74.14;99544.09;10344663;28;20125;-63
2023/12/08 03:28:15;;;;;;;15.50;13.85;;;;;;;3.35;74.95;99532.91;10335980;28;20101;-62
2023/12/08 03:33:19;;;;;;;16.15;13.57;;;;;;;3.40;74.34;99535.25;10336596;28;20042;-63
2023/12/08 03:38:21;;;;;;;17.25;14.30;;;;;;;3.35;74.29;99529.44;10346802;28;20050;-64
2023/12/08 03:43:22;;;;;;;15.93;13.75;;;;;;;3.36;74.31;99528.50;10336386;28;20050;-64
2023/12/08 03:48:24;;;;;;;15.40;13.63;;;;;;;3.40;74.76;99529.16;10336900;28;20223;-63
2023/12/08 03:53:25;;;;;;;17.45;14.90;;;;;;;3.41;74.57;99546.63;10336647;28;20048;-63
2023/12/08 03:58:27;;;;;;;17.88;15.65;;;;;;;3.37;74.56;99548.59;10340496;28;20061;-64
2023/12/08 04:03:29;;;;;;;18.25;16.15;;;;;;;3.39;74.99;99528.28;10338854;28;20060;-62
2023/12/08 04:08:30;;;;;;;17.92;14.32;;;;;;;3.33;74.93;99513.75;10335225;28;20522;-62
2023/12/08 04:13:32;;;;;;;17.67;14.40;;;;;;;3.41;74.78;99507.16;10337692;28;20065;-62
2023/12/08 04:18:34;;;;;;;15.40;13.65;;;;;;;3.42;74.97;99514.13;10337025;28;20089;-63
2023/12/08 04:23:36;;;;;;;16.38;14.27;;;;;;;3.43;74.61;99492.13;10334255;28;20064;-63
2023/12/08 04:28:39;;;;;;;16.83;14.10;;;;;;;3.45;74.49;99482.34;10327623;28;20072;-62
2023/12/08 04:33:40;;;;;;;18.80;14.98;;;;;;;3.43;73.88;99498.22;10332248;28;20227;-63
2023/12/08 04:38:43;;;;;;;19.23;15.40;;;;;;;3.27;73.77;99469.44;10326615;28;20053;-63
2023/12/08 04:43:46;;;;;;;16.25;13.98;;;;;;;3.44;74.22;99489.41;10335916;28;20054;-63
2023/12/08 04:48:50;;;;;;;17.45;14.07;;;;;;;3.15;75.68;99439.47;10337614;28;20136;-64
2023/12/08 04:53:52;;;;;;;17.05;14.13;;;;;;;3.35;76.46;99466.31;10320883;28;20205;-63
2023/12/08 04:58:54;;;;;;;17.48;14.63;;;;;;;3.39;77.55;99474.84;10331219;28;20196;-64
2023/12/08 05:03:56;;;;;;;19.45;15.23;;;;;;;3.43;77.61;99482.44;10331661;28;20049;-63
2023/12/08 05:08:57;;;;;;;17.63;14.63;;;;;;;3.46;78.52;99487.50;10348044;28;20565;-63
2023/12/08 05:14:02;;;;;;;16.77;14.02;;;;;;;3.45;78.44;99491.09;10345196;28;20140;-63
2023/12/08 05:19:04;;;;;;;18.13;14.98;;;;;;;3.43;79.38;99469.28;10338938;28;20046;-62
2023/12/08 05:24:06;;;;;;;17.70;15.73;;;;;;;3.51;79.64;99485.44;10337089;28;20603;-63
2023/12/08 05:29:08;;;;;;;17.70;14.35;;;;;;;3.41;79.63;99472.94;10342426;28;20552;-64
2023/12/08 05:34:09;;;;;;;18.85;15.77;;;;;;;3.39;80.76;99486.19;10330972;28;20073;-65
2023/12/08 05:39:11;;;;;;;18.05;14.48;;;;;;;3.41;81.05;99491.38;10344161;28;20184;-64
2023/12/08 05:44:15;;;;;;;20.40;16.20;;;;;;;3.48;80.98;99500.56;10341185;28;20138;-63
2023/12/08 05:49:18;;;;;;;18.77;15.27;;;;;;;3.31;81.51;99499.00;10353107;28;20466;-63
2023/12/08 05:54:20;;;;;;;18.95;15.45;;;;;;;3.32;81.88;99500.69;10330204;28;20053;-64
2023/12/08 05:59:21;;;;;;;17.45;14.88;;;;;;;3.26;82.79;99486.13;10335910;28;20589;-64
2023/12/08 06:04:23;;;;;;;20.40;15.55;;;;;;;3.43;83.37;99487.69;10338506;28;20073;-63
2023/12/08 06:09:25;;;;;;;19.10;15.82;;;;;;;3.40;84.45;99492.31;10342177;28;20120;-63
2023/12/08 06:14:27;;;;;;;18.48;16.20;;;;;;;3.34;84.01;99488.28;10347944;28;20045;-64
2023/12/08 06:19:28;;;;;;;17.27;15.32;;;;;;;3.41;84.29;99496.63;10341766;28;20089;-64
2023/12/08 06:24:31;;;;;;;20.63;16.55;;;;;;;3.35;84.45;99524.19;10342031;28;20600;-63
2023/12/08 06:29:32;;;;;;;19.05;16.08;;;;;;;3.23;84.37;99530.19;10334058;28;20053;-62
2023/12/08 06:34:34;;;;;;;16.63;14.82;;;;;;;3.22;85.61;99536.41;10350235;28;20065;-64
2023/12/08 06:39:39;;;;;;;20.42;16.15;;;;;;;3.18;86.29;99531.34;10340805;28;20053;-64
2023/12/08 06:44:40;;;;;;;21.38;16.67;;;;;;;3.15;86.72;99536.78;10347119;28;20054;-63
2023/12/08 06:49:44;;;;;;;19.08;16.40;;;;;;;3.12;87.88;99542.22;10338189;28;20185;-64
2023/12/08 06:54:45;;;;;;;20.80;17.38;;;;;;;3.18;88.05;99544.47;10326393;28;20063;-65
2023/12/08 06:59:47;;;;;;;20.98;17.05;;;;;;;3.14;88.49;99545.59;10336965;28;20454;-63
2023/12/08 07:04:48;;;;;;;21.15;16.98;;;;;;;3.11;88.84;99532.66;10340550;28;20665;-63
2023/12/08 07:09:50;;;;;;;21.70;16.40;;;;;;;3.11;89.17;99532.66;10330233;28;20049;-65
2023/12/08 07:14:52;;;;;;;20.13;17.23;;;;;;;3.04;90.48;99528.69;10348728;28;20057;-63
2023/12/08 07:19:54;;;;;;;19.45;15.93;;;;;;;3.08;90.26;99514.44;10335724;28;20575;-63
2023/12/08 07:24:56;;;;;;;22.08;17.02;;;;;;;3.10;90.77;99516.97;10326056;28;20060;-64
2023/12/08 07:29:57;;;;;;;23.70;17.67;;;;;;;3.08;90.78;99524.06;10333000;28;20155;-65
2023/12/08 07:34:59;;;;;;;25.52;18.10;;;;;;;3.06;90.75;99531.22;10338244;28;20136;-64
2023/12/08 07:40:05;;;;;;;24.10;18.25;;;;;;;3.11;90.64;99542.31;10334059;28;20199;-64
2023/12/08 07:45:08;;;;;;;25.25;18.63;;;;;;;3.11;90.71;99540.53;10332310;28;20135;-65
2023/12/08 07:50:10;;;;;;;23.45;18.65;;;;;;;3.12;90.79;99509.81;10337498;28;20172;-65
2023/12/08 07:55:11;;;;;;;23.25;19.42;;;;;;;2.85;90.79;99465.03;10336202;28;20069;-65
2023/12/08 08:00:13;;;;;;;25.27;19.20;;;;;;;3.05;91.26;99504.09;10335485;28;20085;-65
2023/12/08 08:05:16;;;;;;;23.10;18.42;;;;;;;3.03;91.11;99511.22;10329312;28;20081;-64
2023/12/08 08:10:17;;;;;;;22.25;19.00;;;;;;;3.12;91.39;99508.03;10336910;28;20124;-62
2023/12/08 08:15:18;;;;;;;22.20;18.17;;;;;;;3.17;91.08;99519.13;10334652;28;20084;-63
2023/12/08 08:20:22;;;;;;;22.85;18.85;;;;;;;3.14;90.61;99519.31;10334986;28;20045;-63
2023/12/08 08:25:24;;;;;;;22.60;18.30;;;;;;;3.15;90.59;99515.75;10308356;28;20049;-66
2023/12/08 08:30:26;;;;;;;21.52;18.00;;;;;;;3.30;90.72;99518.34;10341017;28;20061;-64
2023/12/08 08:35:27;;;;;;;22.13;18.35;;;;;;;3.42;90.39;99537.78;10332694;28;20127;-63
2023/12/08 08:40:33;;;;;;;23.02;18.30;;;;;;;3.38;90.10;99524.00;10325047;28;20233;-62
2023/12/08 08:45:35;;;;;;;22.73;17.95;;;;;;;3.34;90.37;99517.22;10343846;28;20185;-63
2023/12/08 08:50:36;;;;;;;23.17;18.70;;;;;;;3.31;90.89;99520.06;10355860;28;20058;-63
2023/12/08 08:55:49;;;;;;;20.88;18.40;;;;;;;3.30;90.67;99521.84;10345162;28;20116;-63
2023/12/08 09:00:51;;;;;;;24.25;18.58;;;;;;;3.19;90.94;99509.34;10338546;28;20509;-66
2023/12/08 09:05:52;;;;;;;20.33;16.83;;;;;;;3.20;91.29;99523.34;10345201;28;20136;-64
2023/12/08 09:10:54;;;;;;;22.48;18.00;;;;;;;3.28;92.01;99530.75;10343653;28;20208;-63
2023/12/08 09:15:56;;;;;;;22.05;18.48;;;;;;;3.26;92.31;99530.00;10335765;28;20558;-63
2023/12/08 09:20:59;;;;;;;27.13;19.23;;;;;;;3.40;91.58;99542.31;10329829;28;20116;-64
2023/12/08 09:26:01;;;;;;;21.10;17.90;;;;;;;3.39;91.99;99548.50;10337758;28;20555;-62
2023/12/08 09:31:03;;;;;;;24.38;18.00;;;;;;;3.32;91.77;99558.56;10343821;28;20411;-63
2023/12/08 09:36:05;;;;;;;22.45;18.80;;;;;;;3.40;91.83;99550.22;10348973;28;20045;-63
2023/12/08 09:41:08;;;;;;;23.65;17.67;;;;;;;3.35;92.11;99542.59;10345070;28;20140;-63
2023/12/08 09:46:11;;;;;;;23.77;18.60;;;;;;;3.45;92.03;99559.50;10342555;28;20550;-63
2023/12/08 09:51:14;;;;;;;20.88;17.50;;;;;;;3.51;92.31;99556.50;10348329;28;20048;-65
2023/12/08 09:56:18;;;;;;;23.25;17.67;;;;;;;3.51;91.73;99553.88;10341863;28;20115;-64
2023/12/08 10:01:20;;;;;;;21.35;17.95;;;;;;;3.26;91.82;99528.22;10339909;28;20054;-63
2023/12/08 10:06:23;;;;;;;25.65;19.80;;;;;;;3.48;92.35;99553.19;10342115;28;20830;-63
2023/12/08 10:11:24;;;;;;;22.60;18.80;;;;;;;3.46;92.64;99548.03;10328214;28;20056;-63
2023/12/08 10:16:27;;;;;;;21.63;17.58;;;;;;;3.49;92.89;99539.09;10346755;28;20527;-65
2023/12/08 10:21:29;;;;;;;23.05;19.65;;;;;;;3.58;92.75;99537.69;10339690;28;20377;-65
2023/12/08 10:26:31;;;;;;;26.52;20.90;;;;;;;3.58;92.97;99533.25;10337165;28;20144;-64
2023/12/08 10:31:33;;;;;;;23.48;20.13;;;;;;;3.74;92.87;99535.78;10339851;28;20607;-66
2023/12/08 10:36:36;;;;;;;27.85;20.38;;;;;;;3.80;92.87;99543.28;10337108;28;20084;-64
2023/12/08 10:41:39;;;;;;;26.75;19.50;;;;;;;3.79;92.76;99531.06;10348125;28;20139;-63
2023/12/08 10:46:41;;;;;;;26.63;20.73;;;;;;;3.75;93.45;99524.28;10329503;28;20045;-63
2023/12/08 10:51:45;;;;;;;28.50;20.90;;;;;;;3.76;92.92;99536.50;10339251;28;20108;-64
2023/12/08 10:56:49;;;;;;;20.43;15.57;;;;;;;3.87;92.60;99547.22;10342432;28;20046;-64
2023/12/08 11:01:52;;;;;;;23.00;18.73;;;;;;;3.89;92.45;99547.97;10335790;28;20463;-67
2023/12/08 11:07:01;;;;;;;23.85;19.33;;;;;;;3.85;92.93;99535.09;10345845;28;20081;-65
2023/12/08 11:12:06;;;;;;;35.88;26.02;;;;;;;3.78;92.95;99524.09;10341333;28;20093;-63
2023/12/08 11:17:22;;;;;;;25.95;18.23;;;;;;;3.87;93.34;99546.34;10340279;28;20060;-63
2023/12/08 11:22:24;;;;;;;30.40;23.85;;;;;;;3.91;93.67;99536.50;10339140;28;20045;-64
2023/12/08 11:27:33;;;;;;;23.77;18.83;;;;;;;3.97;93.32;99541.34;10347290;28;20542;-63
2023/12/08 11:32:38;;;;;;;29.75;22.83;;;;;;;4.05;93.62;99546.97;10348674;28;20064;-64
2023/12/08 11:37:40;;;;;;;;;;;;;;;4.07;93.35;99550.34;10335895;28;20049;-64
2023/12/08 11:42:45;;;;;;;27.15;20.88;;;;;;;4.08;93.72;99546.75;10340130;28;19932;-63
2023/12/08 11:47:47;;;;;;;27.95;22.35;;;;;;;3.96;94.05;99547.56;10334844;28;20134;-64
2023/12/08 11:52:50;;;;;;;29.83;21.35;;;;;;;3.94;94.98;99538.94;10341568;28;20120;-64
2023/12/08 11:58:06;;;;;;;32.63;21.60;;;;;;;4.02;95.04;99544.53;10351361;28;20149;-62
2023/12/08 12:03:10;;;;;;;28.70;20.98;;;;;;;4.05;95.50;99547.81;10326369;28;20603;-63
2023/12/08 12:08:14;;;;;;;29.85;21.40;;;;;;;4.08;95.19;99546.75;10333988;28;20427;-64
2023/12/08 12:13:19;;;;;;;31.70;22.80;;;;;;;4.12;95.95;99558.78;10329255;28;20061;-67
2023/12/08 12:18:23;;;;;;;32.85;21.38;;;;;;;4.15;96.14;99552.50;10347694;28;20140;-64
2023/12/08 12:23:25;;;;;;;36.97;24.33;;;;;;;4.11;96.45;99570.25;10336225;28;20045;-64
2023/12/08 12:28:26;;;;;;;32.30;22.83;;;;;;;4.09;97.33;99553.72;10339141;28;20137;-65
2023/12/08 12:33:28;;;;;;;42.15;29.05;;;;;;;4.13;97.25;99549.97;10333306;28;20115;-65
2023/12/08 12:38:31;;;;;;;35.03;26.00;;;;;;;4.10;97.59;99542.25;10337304;28;24051;-64
2023/12/08 12:43:33;;;;;;;35.78;29.83;;;;;;;4.21;97.95;99531.00;10336621;28;20049;-64
2023/12/08 12:48:34;;;;;;;36.22;25.02;;;;;;;4.15;98.09;99540.16;10342579;28;20038;-64
2023/12/08 12:53:46;;;;;;;35.67;24.27;;;;;;;4.17;98.66;99540.06;10351938;28;20045;-65
2023/12/08 12:59:01;;;;;;;35.15;24.05;;;;;;;4.21;98.22;99558.19;10321596;28;20045;-64
2023/12/08 13:04:03;;;;;;;;;;;;;;;4.15;98.71;99550.69;10334051;28;20042;-64
2023/12/08 13:09:05;;;;;;;36.85;23.40;;;;;;;4.08;99.06;99546.75;10339157;28;19936;-65
2023/12/08 13:14:08;;;;;;;39.80;24.40;;;;;;;4.15;99.20;99560.41;10314860;28;20133;-65
2023/12/08 13:19:11;;;;;;;37.88;25.17;;;;;;;4.16;99.37;99576.09;10332614;28;20060;-63
2023/12/08 13:24:12;;;;;;;39.53;25.77;;;;;;;4.20;100.00;99561.78;10329356;28;20124;-65
2023/12/08 13:29:17;;;;;;;41.45;24.55;;;;;;;4.20;100.00;99566.19;10337358;28;20222;-65
2023/12/08 13:34:19;;;;;;;37.85;24.75;;;;;;;4.25;100.00;99572.88;10341398;28;20054;-69
2023/12/08 13:39:21;;;;;;;33.35;22.58;;;;;;;4.31;100.00;99573.41;10334748;28;20091;-70
2023/12/08 13:44:23;;;;;;;42.28;24.35;;;;;;;4.36;100.00;99577.44;10332544;28;20052;-69
2023/12/08 13:49:25;;;;;;;40.60;25.85;;;;;;;4.39;100.00;99579.03;10351215;28;20470;-68
2023/12/08 13:54:28;;;;;;;38.55;24.15;;;;;;;4.42;99.99;99578.81;10338457;28;20052;-64
2023/12/08 13:59:30;;;;;;;35.60;25.95;;;;;;;4.37;100.00;99604.66;10349239;28;20057;-65
2023/12/08 14:04:33;;;;;;;37.75;25.25;;;;;;;4.30;100.00;99603.34;10354186;28;20157;-63
2023/12/08 14:09:34;;;;;;;37.30;22.83;;;;;;;4.36;100.00;99593.22;10347569;28;20144;-64
2023/12/08 14:14:38;;;;;;;43.72;25.45;;;;;;;4.44;100.00;99611.19;10336397;28;20680;-64
2023/12/08 14:19:39;;;;;;;37.50;25.17;;;;;;;4.46;100.00;99617.22;10338836;28;20064;-64
2023/12/08 14:24:41;;;;;;;44.70;27.58;;;;;;;4.49;100.00;99618.78;10343971;28;20057;-64
2023/12/08 14:29:42;;;;;;;42.25;25.58;;;;;;;4.43;100.00;99601.59;10345103;28;20111;-64
2023/12/08 14:34:44;;;;;;;39.22;25.42;;;;;;;4.54;100.00;99608.81;10343563;28;20061;-64
2023/12/08 14:39:47;;;;;;;50.55;27.33;;;;;;;4.58;100.00;99607.66;10343343;28;20056;-62
2023/12/08 14:44:48;;;;;;;45.95;28.90;;;;;;;4.55;100.00;99611.34;10335094;28;20615;-64
2023/12/08 14:49:49;;;;;;;41.95;27.98;;;;;;;4.56;100.00;99620.94;10334298;28;20423;-64
2023/12/08 14:54:51;;;;;;;49.15;28.40;;;;;;;4.67;100.00;99632.53;10356595;28;20049;-64
2023/12/08 14:59:53;;;;;;;47.97;27.10;;;;;;;4.65;100.00;99634.44;10338388;28;20144;-63
2023/12/08 15:04:54;;;;;;;44.63;28.17;;;;;;;4.64;100.00;99630.13;10348169;28;20753;-65
2023/12/08 15:09:56;;;;;;;45.15;27.65;;;;;;;4.70;100.00;99621.78;10345887;28;20158;-65
2023/12/08 15:14:59;;;;;;;51.90;30.65;;;;;;;4.69;100.00;99636.78;10340975;28;20049;-62
2023/12/08 15:20:01;;;;;;;42.92;28.35;;;;;;;4.63;100.00;99625.81;10333335;28;20563;-61
2023/12/08 15:25:03;;;;;;;49.00;29.33;;;;;;;4.67;100.00;99630.78;10343750;28;20083;-64
2023/12/08 15:30:09;;;;;;;47.10;28.23;;;;;;;4.59;100.00;99615.47;10330103;28;20053;-64
2023/12/08 15:35:11;;;;;;;47.50;29.02;;;;;;;4.68;100.00;99645.63;10347192;28;20045;-63
2023/12/08 15:40:13;;;;;;;43.38;28.63;;;;;;;4.74;100.00;99653.16;10348944;28;20050;-63
2023/12/08 15:45:15;;;;;;;47.55;30.88;;;;;;;4.85;100.00;99672.69;10352561;28;20131;-64
2023/12/08 15:50:17;;;;;;;50.78;29.15;;;;;;;4.83;100.00;99664.03;10352434;28;20630;-63
2023/12/08 15:55:19;;;;;;;47.70;29.27;;;;;;;4.87;100.00;99676.91;10352716;28;20420;-62
2023/12/08 16:00:23;;;;;;;50.80;30.55;;;;;;;4.89;100.00;99685.56;10341563;28;20054;-65
2023/12/08 16:05:24;;;;;;;44.95;28.38;;;;;;;4.91;100.00;99686.31;10336173;28;20044;-65
2023/12/08 16:10:27;;;;;;;46.15;30.85;;;;;;;4.93;100.00;99687.06;10336031;28;20179;-66
2023/12/08 16:15:29;;;;;;;46.95;28.65;;;;;;;4.87;100.00;99692.75;10347218;28;21159;-64
2023/12/08 16:20:30;;;;;;;42.00;27.48;;;;;;;4.96;100.00;99707.13;10327920;28;20054;-64
2023/12/08 16:25:34;;;;;;;45.03;29.20;;;;;;;5.05;100.00;99718.88;10334929;28;20054;-64
2023/12/08 16:30:35;;;;;;;42.05;27.90;;;;;;;5.09;100.00;99712.44;10328192;28;20180;-63
2023/12/08 16:35:37;;;;;;;39.47;26.50;;;;;;;5.15;100.00;99717.31;10337126;28;20124;-63
2023/12/08 16:40:40;;;;;;;43.25;26.98;;;;;;;5.05;100.00;99690.69;10335198;28;20795;-64
2023/12/08 16:45:42;;;;;;;43.38;27.70;;;;;;;5.21;100.00;99713.38;10334315;28;20514;-63
2023/12/08 16:50:43;;;;;;;44.08;27.35;;;;;;;5.10;100.00;99714.13;10347667;28;20061;-63
2023/12/08 16:55:46;;;;;;;44.10;29.33;;;;;;;5.20;100.00;99723.13;10333339;28;20697;-66
2023/12/08 17:00:49;;;;;;;46.20;29.00;;;;;;;5.24;100.00;99727.25;10339306;28;20254;-63
2023/12/08 17:05:52;;;;;;;43.70;28.13;;;;;;;5.17;100.00;99714.56;10336553;28;20065;-63
2023/12/08 17:10:53;;;;;;;40.17;26.33;;;;;;;5.24;100.00;99729.88;10345412;28;20049;-62
2023/12/08 17:15:55;;;;;;;42.10;27.00;;;;;;;5.22;100.00;99744.13;10345469;28;20076;-65
2023/12/08 17:20:57;;;;;;;46.78;29.17;;;;;;;5.16;100.00;99748.00;10340302;28;20049;-65
2023/12/08 17:25:59;;;;;;;46.30;32.33;;;;;;;5.14;100.00;99757.81;10344525;28;20057;-64
2023/12/08 17:31:01;;;;;;;56.63;41.50;;;;;;;5.01;100.00;99734.03;10344151;28;20046;-63
2023/12/08 17:36:03;;;;;;;46.15;34.95;;;;;;;5.15;100.00;99767.44;10340520;28;20060;-66
2023/12/08 17:41:04;;;;;;;59.92;48.38;;;;;;;5.19;100.00;99765.44;10342596;28;20064;-64
2023/12/08 17:46:06;;;;;;;56.63;42.15;;;;;;;5.16;100.00;99755.91;10342094;28;20464;-64
2023/12/08 17:51:11;;;;;;;42.75;29.13;;;;;;;5.19;100.00;99770.72;10355062;28;20423;-63
2023/12/08 17:56:14;;;;;;;41.58;26.67;;;;;;;5.24;100.00;99784.44;10344657;28;20097;-64
2023/12/08 18:01:16;;;;;;;44.83;27.98;;;;;;;5.21;100.00;99787.28;10340623;28;20048;-65
2023/12/08 18:06:21;;;;;;;55.10;32.70;;;;;;;5.06;100.00;99762.75;10344851;28;20515;-64
2023/12/08 18:11:24;;;;;;;51.58;31.98;;;;;;;5.18;100.00;99784.84;10343847;28;20137;-63
2023/12/08 18:16:27;;;;;;;47.05;29.75;;;;;;;5.28;100.00;99796.50;10350030;28;20045;-65
2023/12/08 18:21:30;;;;;;;45.50;32.10;;;;;;;5.28;100.00;99801.78;10339091;28;20108;-64
2023/12/08 18:26:33;;;;;;;48.83;40.05;;;;;;;5.25;100.00;99809.88;10348183;28;20423;-63
2023/12/08 18:31:34;;;;;;;47.13;30.48;;;;;;;5.26;100.00;99819.50;10343392;28;20053;-61
2023/12/08 18:36:36;;;;;;;97.57;83.25;;;;;;;5.21;100.00;99822.44;10338208;28;20054;-61
2023/12/08 18:41:38;;;;;;;57.55;41.25;;;;;;;5.23;100.00;99825.81;10339296;28;20133;-62
2023/12/08 18:46:41;;;;;;;43.78;29.02;;;;;;;5.24;100.00;99832.81;10342320;28;20046;-63
2023/12/08 18:51:45;;;;;;;61.22;48.95;;;;;;;5.30;100.00;99847.41;10341631;28;20049;-64
2023/12/08 18:56:46;;;;;;;44.88;30.00;;;;;;;5.28;100.00;99839.59;10337426;28;20045;-62
2023/12/08 19:01:48;;;;;;;48.58;30.35;;;;;;;5.23;100.00;99839.00;10345686;28;20056;-65
2023/12/08 19:06:49;;;;;;;41.40;26.92;;;;;;;5.22;100.00;99845.22;10351771;28;20052;-66
2023/12/08 19:11:51;;;;;;;38.45;24.88;;;;;;;5.30;100.00;99858.78;10334903;28;20065;-64
2023/12/08 19:16:52;;;;;;;49.10;37.38;;;;;;;5.36;100.00;99857.56;10348130;28;20061;-66
2023/12/08 19:21:53;;;;;;;42.05;29.33;;;;;;;5.40;100.00;99852.91;10339996;28;20140;-66
2023/12/08 19:26:55;;;;;;;46.20;33.53;;;;;;;5.25;100.00;99852.13;10342811;28;20053;-62
2023/12/08 19:31:57;;;;;;;42.47;29.33;;;;;;;5.18;100.00;99859.59;10356587;28;20068;-62
2023/12/08 19:36:58;;;;;;;41.58;27.30;;;;;;;5.22;100.00;99863.69;10345079;28;20464;-63
2023/12/08 19:42:00;;;;;;;38.55;27.05;;;;;;;5.24;100.00;99859.19;10342302;28;20128;-62
2023/12/08 19:47:02;;;;;;;35.40;25.42;;;;;;;5.27;100.00;99874.81;10318481;28;20061;-64
2023/12/08 19:52:04;;;;;;;37.13;25.15;;;;;;;5.29;100.00;99865.00;10313795;28;20808;-64
2023/12/08 19:57:09;;;;;;;37.35;25.88;;;;;;;5.28;100.00;99865.97;10327720;28;20049;-62
2023/12/08 20:02:10;;;;;;;40.20;25.42;;;;;;;5.20;100.00;99862.97;10312288;28;20593;-64
2023/12/08 20:07:12;;;;;;;38.38;27.05;;;;;;;5.29;100.00;99888.75;10341259;28;20127;-65
2023/12/08 20:12:15;;;;;;;39.70;26.58;;;;;;;5.22;100.00;99892.72;10331451;28;20490;-65
2023/12/08 20:17:17;;;;;;;36.88;24.95;;;;;;;5.21;100.00;99893.69;10340988;28;20100;-64
2023/12/08 20:22:24;;;;;;;38.30;24.83;;;;;;;5.28;100.00;99889.72;10335407;28;20049;-63
2023/12/08 20:27:25;;;;;;;37.42;24.83;;;;;;;5.35;100.00;99902.53;10337342;28;20064;-64
2023/12/08 20:32:27;;;;;;;36.83;26.23;;;;;;;5.38;100.00;99905.81;10341517;28;20140;-63
2023/12/08 20:37:28;;;;;;;33.05;22.75;;;;;;;5.46;100.00;99911.44;10348201;28;20042;-64
2023/12/08 20:42:30;;;;;;;34.22;24.33;;;;;;;5.50;100.00;99912.09;10320361;28;20044;-63
2023/12/08 20:47:32;;;;;;;32.72;24.05;;;;;;;5.45;100.00;99927.34;10351532;28;20049;-63
2023/12/08 20:52:33;;;;;;;36.65;24.95;;;;;;;5.48;100.00;99916.63;10336405;28;20050;-64
2023/12/08 20:57:35;;;;;;;36.40;25.65;;;;;;;5.57;100.00;99928.38;10328504;28;20678;-64
2023/12/08 21:02:36;;;;;;;28.42;21.17;;;;;;;5.57;100.00;99934.50;10327573;28;20049;-63
2023/12/08 21:07:39;;;;;;;34.40;22.65;;;;;;;5.61;100.00;99932.50;10350962;28;20056;-63
2023/12/08 21:12:41;;;;;;;34.60;25.60;;;;;;;5.61;100.00;99935.97;10343648;28;20510;-64
2023/12/08 21:17:42;;;;;;;34.83;25.40;;;;;;;5.62;100.00;99923.66;10334243;28;20584;-63
2023/12/08 21:22:44;;;;;;;35.00;25.58;;;;;;;5.59;100.00;99927.31;10309956;28;20066;-64
2023/12/08 21:27:46;;;;;;;40.83;30.83;;;;;;;5.36;100.00;99896.28;10338819;28;20061;-63
2023/12/08 21:32:47;;;;;;;34.95;25.05;;;;;;;5.61;100.00;99933.34;10335983;28;20731;-62
2023/12/08 21:37:49;;;;;;;39.00;26.45;;;;;;;5.70;100.00;99933.72;10333480;28;20088;-64
2023/12/08 21:42:53;;;;;;;37.22;24.92;;;;;;;5.71;100.00;99935.41;10337718;28;20057;-64
2023/12/08 21:47:54;;;;;;;35.75;25.25;;;;;;;5.76;100.00;99943.88;10326043;28;20053;-63
2023/12/08 21:52:56;;;;;;;48.08;35.25;;;;;;;5.72;100.00;99948.50;10353556;28;20049;-63
2023/12/08 21:57:58;;;;;;;39.28;27.85;;;;;;;5.75;100.00;99942.16;10338077;28;20499;-62
2023/12/08 22:02:59;;;;;;;41.80;28.83;;;;;;;5.73;100.00;99949.34;10359654;28;20129;-63
2023/12/08 22:08:01;;;;;;;38.72;29.45;;;;;;;5.77;100.00;99945.56;10349051;28;20062;-63
2023/12/08 22:13:03;;;;;;;40.88;28.90;;;;;;;5.81;100.00;99957.59;10342475;28;20045;-63
2023/12/08 22:18:04;;;;;;;39.97;26.55;;;;;;;5.77;100.00;99958.78;10342145;28;20085;-63
2023/12/08 22:23:06;;;;;;;34.22;26.38;;;;;;;5.82;100.00;99954.03;10331972;28;20045;-64
2023/12/08 22:28:08;;;;;;;40.63;28.27;;;;;;;5.81;100.00;99957.59;10345791;28;20081;-64
2023/12/08 22:33:10;;;;;;;40.60;27.08;;;;;;;5.77;100.00;99961.41;10329164;28;20050;-66
2023/12/08 22:38:11;;;;;;;41.58;29.30;;;;;;;5.77;100.00;99961.41;10332184;28;20151;-65
2023/12/08 22:43:12;;;;;;;44.60;30.33;;;;;;;5.76;100.00;99965.00;10338415;28;20100;-64
2023/12/08 22:48:14;;;;;;;42.13;29.33;;;;;;;5.81;100.00;99965.53;10328181;28;20226;-63
2023/12/08 22:53:16;;;;;;;40.92;28.92;;;;;;;5.90;100.00;99957.03;10353811;28;20053;-68
2023/12/08 22:58:17;;;;;;;41.22;29.42;;;;;;;5.93;100.00;99961.25;10327014;28;20451;-64
2023/12/08 23:03:19;;;;;;;39.20;28.73;;;;;;;5.94;100.00;99952.38;10345212;28;20049;-63